createdAt,value
2023-03-30T00:02:12.864Z,8.87
2023-03-30T00:04:43.074Z,7.77
2023-03-30T00:07:11.660Z,9.30
2023-03-30T00:09:42.398Z,6.37
2023-03-30T00:12:10.479Z,9.00
2023-03-30T00:14:41.437Z,8.17
2023-03-30T00:17:09.590Z,7.63
2023-03-30T00:19:37.757Z,12.27
2023-03-30T00:22:07.660Z,9.90
2023-03-30T00:24:35.820Z,8.37
2023-03-30T00:27:03.873Z,12.07
2023-03-30T00:29:31.530Z,9.73
2023-03-30T00:31:59.245Z,6.47
2023-03-30T00:34:26.960Z,9.43
2023-03-30T00:36:54.672Z,9.23
2023-03-30T00:39:26.581Z,8.87
2023-03-30T00:41:54.259Z,8.63
2023-03-30T00:44:59.251Z,9.33
2023-03-30T00:47:27.136Z,9.17
2023-03-30T00:49:54.847Z,8.43
2023-03-30T00:52:24.981Z,8.03
2023-03-30T00:54:55.166Z,9.73
2023-03-30T00:57:23.957Z,7.67
2023-03-30T00:59:52.344Z,8.30
2023-03-30T01:02:21.599Z,12.70
2023-03-30T01:04:51.608Z,10.03
2023-03-30T01:07:19.380Z,6.53
2023-03-30T01:09:48.140Z,9.57
2023-03-30T01:12:17.194Z,6.73
2023-03-30T01:14:45.164Z,9.37
2023-03-30T01:17:17.729Z,5.23
2023-03-30T01:20:12.412Z,6.30
2023-03-30T01:23:14.631Z,14.43
2023-03-30T01:25:59.452Z,12.47
2023-03-30T01:28:37.798Z,8.80
2023-03-30T01:31:16.348Z,6.70
2023-03-30T01:34:15.116Z,12.13
2023-03-30T01:37:04.199Z,14.27
2023-03-30T01:39:44.673Z,11.73
2023-03-30T01:42:19.107Z,7.70
2023-03-30T01:44:52.864Z,7.37
2023-03-30T01:47:23.794Z,7.60
2023-03-30T01:49:57.346Z,15.20
2023-03-30T01:52:28.703Z,11.17
2023-03-30T01:54:59.475Z,9.10
2023-03-30T01:57:32.558Z,8.90
2023-03-30T02:00:07.595Z,5.83
2023-03-30T02:02:35.599Z,9.87
2023-03-30T02:05:06.355Z,10.77
2023-03-30T02:07:35.814Z,12.93
2023-03-30T02:10:08.066Z,11.67
2023-03-30T02:12:36.497Z,11.33
2023-03-30T02:15:07.526Z,8.33
2023-03-30T02:17:35.819Z,10.07
2023-03-30T02:20:08.371Z,6.03
2023-03-30T02:22:36.269Z,6.53
2023-03-30T02:25:06.467Z,9.10
2023-03-30T02:27:35.116Z,10.27
2023-03-30T02:30:02.852Z,5.13
2023-03-30T02:32:38.148Z,8.37
2023-03-30T02:35:22.265Z,7.67
2023-03-30T02:38:14.874Z,10.23
2023-03-30T02:40:50.594Z,9.73
2023-03-30T02:43:26.949Z,8.60
2023-03-30T02:46:02.199Z,7.43
2023-03-30T02:48:40.059Z,10.00
2023-03-30T02:51:21.108Z,6.83
2023-03-30T02:53:53.421Z,10.17
2023-03-30T02:56:25.531Z,8.87
2023-03-30T02:58:56.485Z,6.00
2023-03-30T03:01:29.054Z,14.63
2023-03-30T03:03:59.064Z,11.70
2023-03-30T03:06:27.486Z,9.03
2023-03-30T03:08:56.623Z,9.30
2023-03-30T03:11:25.799Z,9.47
2023-03-30T03:13:53.547Z,7.83
2023-03-30T03:16:21.396Z,10.70
2023-03-30T03:18:49.629Z,8.57
2023-03-30T03:21:17.337Z,6.90
2023-03-30T03:23:48.242Z,9.80
2023-03-30T03:26:15.956Z,10.00
2023-03-30T03:28:45.007Z,8.47
2023-03-30T03:31:14.064Z,9.20
2023-03-30T03:33:41.814Z,5.13
2023-03-30T03:36:12.204Z,7.27
2023-03-30T03:38:40.008Z,10.90
2023-03-30T03:41:08.271Z,6.60
2023-03-30T03:43:36.697Z,6.13
2023-03-30T03:46:05.881Z,7.53
2023-03-30T03:48:33.647Z,10.43
2023-03-30T03:51:01.504Z,11.00
2023-03-30T03:53:29.827Z,7.37
2023-03-30T03:55:57.505Z,6.83
2023-03-30T03:58:26.368Z,6.07
2023-03-30T04:00:59.365Z,11.43
2023-03-30T04:03:28.644Z,5.57
2023-03-30T04:06:00.286Z,9.47
2023-03-30T04:08:28.551Z,8.63
2023-03-30T04:10:56.301Z,4.40
2023-03-30T04:13:23.994Z,8.80
2023-03-30T04:15:51.815Z,8.57
2023-03-30T04:18:19.570Z,8.87
2023-03-30T04:20:49.355Z,7.73
2023-03-30T04:23:21.755Z,6.73
2023-03-30T04:25:51.793Z,6.50
2023-03-30T04:28:21.835Z,4.70
2023-03-30T04:30:50.721Z,7.10
2023-03-30T04:33:18.464Z,14.33
2023-03-30T04:35:46.749Z,4.37
2023-03-30T04:38:22.576Z,7.03
2023-03-30T04:40:50.755Z,6.90
2023-03-30T04:43:20.039Z,4.60
2023-03-30T04:45:51.853Z,7.43
2023-03-30T04:48:20.691Z,5.17
2023-03-30T04:50:50.295Z,6.93
2023-03-30T04:53:19.777Z,4.77
2023-03-30T04:55:49.742Z,5.73
2023-03-30T04:58:17.828Z,8.17
2023-03-30T05:00:45.942Z,11.40
2023-03-30T05:03:13.717Z,6.83
2023-03-30T05:05:41.584Z,5.63
2023-03-30T05:08:09.252Z,12.27
2023-03-30T05:10:38.305Z,3.30
2023-03-30T05:13:06.116Z,7.37
2023-03-30T05:15:33.778Z,9.53
2023-03-30T05:18:01.472Z,3.13
2023-03-30T05:20:29.204Z,8.73
2023-03-30T05:22:56.903Z,5.23
2023-03-30T05:25:24.795Z,4.60
2023-03-30T05:27:53.934Z,8.50
2023-03-30T05:30:21.655Z,3.47
2023-03-30T05:32:49.329Z,5.63
2023-03-30T05:35:17.047Z,6.23
2023-03-30T05:37:44.717Z,6.03
2023-03-30T05:40:13.284Z,5.87
2023-03-30T05:42:41.028Z,5.27
2023-03-30T05:45:11.812Z,6.37
2023-03-30T05:47:39.588Z,4.27
2023-03-30T05:50:09.266Z,8.50
2023-03-30T05:52:37.000Z,4.27
2023-03-30T05:55:05.102Z,4.73
2023-03-30T05:57:33.601Z,5.67
2023-03-30T06:00:01.577Z,3.80
2023-03-30T06:02:30.849Z,6.23
2023-03-30T06:04:58.679Z,7.83
2023-03-30T06:07:26.494Z,8.53
2023-03-30T06:09:54.122Z,5.47
2023-03-30T06:12:22.097Z,4.97
2023-03-30T06:14:49.735Z,7.43
2023-03-30T06:17:17.529Z,4.30
2023-03-30T06:19:46.573Z,8.63
2023-03-30T06:22:14.339Z,13.70
2023-03-30T06:24:41.974Z,9.10
2023-03-30T06:27:09.674Z,8.53
2023-03-30T06:29:38.353Z,6.17
2023-03-30T06:32:06.707Z,9.60
2023-03-30T06:34:34.411Z,7.73
2023-03-30T06:37:03.558Z,7.13
2023-03-30T06:39:31.364Z,8.50
2023-03-30T06:41:59.080Z,7.30
2023-03-30T06:44:27.123Z,8.87
2023-03-30T06:46:54.824Z,7.00
2023-03-30T06:49:22.525Z,6.47
2023-03-30T06:51:50.424Z,4.87
2023-03-30T06:54:20.452Z,5.10
2023-03-30T06:56:48.429Z,8.03
2023-03-30T06:59:16.473Z,6.90
2023-03-30T07:01:44.632Z,9.07
2023-03-30T07:04:12.774Z,7.40
2023-03-30T07:06:40.468Z,12.37
2023-03-30T07:09:08.204Z,7.67
2023-03-30T07:11:37.244Z,9.80
2023-03-30T07:14:05.441Z,8.63
2023-03-30T07:16:33.188Z,10.50
2023-03-30T07:19:00.897Z,9.27
2023-03-30T07:21:28.635Z,9.47
2023-03-30T07:23:56.798Z,10.20
2023-03-30T07:26:24.577Z,7.87
2023-03-30T07:28:53.668Z,11.20
2023-03-30T07:31:21.917Z,9.90
2023-03-30T07:33:49.719Z,12.60
2023-03-30T07:36:17.829Z,11.70
2023-03-30T07:38:45.685Z,11.27
2023-03-30T07:41:15.606Z,10.03
2023-03-30T07:43:43.629Z,8.43
2023-03-30T07:46:13.193Z,9.37
2023-03-30T07:48:41.285Z,8.53
2023-03-30T07:51:10.928Z,8.27
2023-03-30T07:53:38.881Z,11.37
2023-03-30T07:56:07.372Z,8.23
2023-03-30T07:58:35.037Z,13.23
2023-03-30T08:01:05.035Z,9.77
2023-03-30T08:03:34.533Z,16.80
2023-03-30T08:06:05.521Z,13.23
2023-03-30T08:08:34.163Z,9.90
2023-03-30T08:11:02.365Z,17.43
2023-03-30T08:13:30.324Z,9.30
2023-03-30T08:15:58.098Z,17.30
2023-03-30T08:18:27.214Z,10.33
2023-03-30T08:20:58.060Z,11.10
2023-03-30T08:23:25.675Z,12.53
2023-03-30T08:25:53.372Z,15.33
2023-03-30T08:28:21.625Z,13.47
2023-03-30T08:30:49.711Z,19.50
2023-03-30T08:33:17.469Z,15.20
2023-03-30T08:35:45.521Z,18.93
2023-03-30T08:38:17.799Z,10.77
2023-03-30T08:40:46.246Z,15.60
2023-03-30T08:43:34.637Z,17.03
2023-03-30T08:46:03.056Z,13.83
2023-03-30T08:48:37.373Z,12.67
2023-03-30T08:51:12.885Z,17.10
2023-03-30T08:53:42.229Z,14.77
2023-03-30T08:56:15.011Z,14.00
2023-03-30T08:58:47.061Z,13.40
2023-03-30T09:01:20.136Z,19.13
2023-03-30T09:04:00.382Z,18.23
2023-03-30T09:06:35.214Z,18.67
2023-03-30T09:09:05.849Z,17.13
2023-03-30T09:11:35.930Z,16.07
2023-03-30T09:14:05.997Z,17.83
2023-03-30T09:16:38.788Z,18.80
2023-03-30T09:19:12.552Z,16.47
2023-03-30T09:21:41.148Z,14.20
2023-03-30T09:24:14.413Z,17.30
2023-03-30T09:26:49.109Z,12.93
2023-03-30T09:29:20.627Z,19.57
2023-03-30T09:31:51.821Z,15.43
2023-03-30T09:34:27.078Z,24.80
2023-03-30T09:36:57.823Z,17.77
2023-03-30T09:39:28.960Z,16.73
2023-03-30T09:42:14.264Z,14.83
2023-03-30T09:44:46.238Z,11.77
2023-03-30T09:47:26.483Z,16.53
2023-03-30T09:49:58.738Z,15.33
2023-03-30T09:52:27.614Z,15.03
2023-03-30T09:54:57.347Z,17.47
2023-03-30T09:57:27.689Z,15.97
2023-03-30T09:59:56.470Z,20.57
2023-03-30T10:02:27.673Z,14.33
2023-03-30T10:05:02.217Z,16.17
2023-03-30T10:07:32.729Z,17.20
2023-03-30T10:10:04.230Z,19.57
2023-03-30T10:12:31.910Z,14.60
2023-03-30T10:15:04.136Z,13.87
2023-03-30T10:17:32.089Z,17.03
2023-03-30T10:20:25.477Z,17.47
2023-03-30T10:22:54.916Z,12.63
2023-03-30T10:25:28.225Z,12.80
2023-03-30T10:27:57.677Z,16.30
2023-03-30T10:30:28.365Z,16.20
2023-03-30T10:32:57.949Z,17.67
2023-03-30T10:35:27.662Z,14.97
2023-03-30T10:37:56.901Z,18.83
2023-03-30T10:40:28.595Z,18.50
2023-03-30T10:42:58.475Z,16.33
2023-03-30T10:45:30.070Z,13.37
2023-03-30T10:48:17.842Z,15.93
2023-03-30T10:50:50.608Z,16.03
2023-03-30T10:53:29.045Z,12.93
2023-03-30T10:56:03.817Z,17.03
2023-03-30T10:58:42.803Z,12.70
2023-03-30T11:01:14.004Z,14.13
2023-03-30T11:03:45.780Z,13.13
2023-03-30T11:06:18.339Z,11.57
2023-03-30T11:08:47.912Z,18.50
2023-03-30T11:11:19.712Z,11.50
2023-03-30T11:13:51.320Z,18.67
2023-03-30T11:16:22.256Z,14.67
2023-03-30T11:18:54.296Z,18.33
2023-03-30T11:21:27.060Z,13.77
2023-03-30T11:23:56.422Z,17.50
2023-03-30T11:26:32.966Z,17.47
2023-03-30T11:29:07.121Z,10.37
2023-03-30T11:31:47.072Z,12.50
2023-03-30T11:34:24.208Z,18.40
2023-03-30T11:36:56.940Z,13.70
2023-03-30T11:39:32.105Z,13.10
2023-03-30T11:42:06.928Z,12.07
2023-03-30T11:44:34.593Z,14.23
2023-03-30T11:47:13.893Z,16.83
2023-03-30T11:49:53.284Z,17.20
2023-03-30T11:52:29.411Z,16.13
2023-03-30T11:55:12.351Z,17.13
2023-03-30T11:57:46.121Z,22.07
2023-03-30T12:00:34.531Z,9.90
2023-03-30T12:03:28.661Z,17.23
2023-03-30T12:06:01.914Z,17.37
2023-03-30T12:08:44.902Z,19.90
2023-03-30T12:11:18.422Z,14.57
2023-03-30T12:13:51.741Z,20.73
2023-03-30T12:16:21.742Z,22.53
2023-03-30T12:18:59.056Z,13.90
2023-03-30T12:21:32.824Z,20.03
2023-03-30T12:24:06.371Z,20.73
2023-03-30T12:26:37.857Z,15.30
2023-03-30T12:29:52.566Z,21.63
2023-03-30T12:32:08.017Z,12.73
2023-03-30T12:34:37.190Z,26.37
2023-03-30T12:37:10.032Z,21.40
2023-03-30T12:39:44.867Z,18.07
2023-03-30T12:42:26.356Z,24.27
2023-03-30T12:45:21.156Z,23.33
2023-03-30T12:48:07.549Z,27.67
2023-03-30T12:50:40.843Z,24.70
2023-03-30T12:53:31.668Z,16.93
2023-03-30T12:56:04.919Z,19.97
2023-03-30T12:58:59.926Z,17.57
2023-03-30T13:01:56.790Z,20.57
2023-03-30T13:04:26.539Z,28.13
2023-03-30T13:06:55.768Z,26.07
2023-03-30T13:09:53.478Z,24.63
2023-03-30T13:12:29.257Z,19.70
2023-03-30T13:15:02.560Z,19.70
2023-03-30T13:17:48.938Z,27.77
2023-03-30T13:20:28.275Z,21.60
2023-03-30T13:23:16.756Z,22.40
2023-03-30T13:25:49.035Z,15.30
2023-03-30T13:28:46.244Z,19.67
2023-03-30T13:31:25.749Z,21.67
2023-03-30T13:34:01.415Z,17.97
2023-03-30T13:36:31.709Z,13.43
2023-03-30T13:39:05.412Z,16.27
2023-03-30T13:41:40.817Z,21.43
2023-03-30T13:44:24.995Z,12.20
2023-03-30T13:46:54.730Z,17.37
2023-03-30T13:49:40.784Z,18.87
2023-03-30T13:52:12.166Z,18.53
2023-03-30T13:54:40.881Z,19.37
2023-03-30T13:57:11.508Z,20.93
2023-03-30T13:59:43.483Z,19.27
2023-03-30T14:02:15.348Z,23.87
2023-03-30T14:04:45.394Z,12.70
2023-03-30T14:07:17.075Z,15.37
2023-03-30T14:09:45.556Z,14.60
2023-03-30T14:12:14.971Z,18.97
2023-03-30T14:14:47.021Z,22.60
2023-03-30T14:17:18.576Z,18.40
2023-03-30T14:19:57.297Z,16.67
2023-03-30T14:22:27.606Z,19.87
2023-03-30T14:24:59.369Z,16.50
2023-03-30T14:27:32.936Z,17.57
2023-03-30T14:30:00.588Z,16.97
2023-03-30T14:32:28.464Z,18.57
2023-03-30T14:34:57.730Z,17.33
2023-03-30T14:37:26.920Z,18.67
2023-03-30T14:39:56.153Z,26.97
2023-03-30T14:42:27.197Z,14.27
2023-03-30T14:44:56.690Z,21.00
2023-03-30T14:47:26.116Z,12.40
2023-03-30T14:49:55.704Z,13.87
2023-03-30T14:52:26.652Z,8.60
2023-03-30T14:55:05.664Z,9.53
2023-03-30T14:57:38.039Z,11.03
2023-03-30T15:00:20.441Z,9.63
2023-03-30T15:02:50.706Z,10.57
2023-03-30T15:05:19.196Z,13.57
2023-03-30T15:07:49.702Z,8.23
2023-03-30T15:10:23.946Z,15.00
2023-03-30T15:12:52.677Z,12.87
2023-03-30T15:15:23.071Z,15.80
2023-03-30T15:17:51.469Z,11.10
2023-03-30T15:20:19.748Z,11.43
2023-03-30T15:22:51.686Z,13.63
2023-03-30T15:25:20.717Z,15.87
2023-03-30T15:27:52.898Z,15.93
2023-03-30T15:30:34.432Z,21.83
2023-03-30T15:33:02.581Z,15.00
2023-03-30T15:35:33.008Z,11.43
2023-03-30T15:38:03.256Z,22.70
2023-03-30T15:40:36.131Z,16.37
2023-03-30T15:43:15.391Z,24.63
2023-03-30T15:45:48.763Z,21.90
2023-03-30T15:48:19.384Z,20.93
2023-03-30T15:50:50.944Z,18.23
2023-03-30T15:53:24.725Z,19.83
2023-03-30T15:55:53.185Z,19.20
2023-03-30T15:58:25.744Z,26.00
2023-03-30T16:00:53.575Z,20.03
2023-03-30T16:03:34.318Z,15.77
2023-03-30T16:06:02.095Z,21.83
2023-03-30T16:08:31.237Z,17.70
2023-03-30T16:10:59.042Z,18.53
2023-03-30T16:13:26.738Z,20.53
2023-03-30T16:15:54.927Z,22.77
2023-03-30T16:18:22.688Z,18.97
2023-03-30T16:20:50.414Z,17.80
2023-03-30T16:23:18.111Z,16.03
2023-03-30T16:25:47.277Z,18.97
2023-03-30T16:28:17.489Z,15.20
2023-03-30T16:30:47.613Z,17.10
2023-03-30T16:33:15.405Z,18.17
2023-03-30T16:35:43.144Z,22.30
2023-03-30T16:38:12.310Z,21.13
2023-03-30T16:40:43.013Z,25.00
2023-03-30T16:43:12.332Z,23.20
2023-03-30T16:45:40.399Z,18.50
2023-03-30T16:48:08.130Z,20.87
2023-03-30T16:50:38.702Z,20.87
2023-03-30T16:53:07.427Z,13.93
2023-03-30T16:55:35.348Z,21.77
2023-03-30T16:58:03.116Z,20.00
2023-03-30T17:00:33.544Z,23.37
2023-03-30T17:03:01.227Z,20.73
2023-03-30T17:05:30.013Z,20.17
2023-03-30T17:07:58.493Z,21.20
2023-03-30T17:10:27.826Z,24.10
2023-03-30T17:12:56.265Z,23.03
2023-03-30T17:15:25.355Z,27.87
2023-03-30T17:17:54.589Z,22.50
2023-03-30T17:20:26.181Z,17.87
2023-03-30T17:22:53.858Z,29.07
2023-03-30T17:25:23.778Z,20.93
2023-03-30T17:27:52.507Z,24.73
2023-03-30T17:30:23.537Z,21.27
2023-03-30T17:32:52.096Z,22.33
2023-03-30T17:35:21.801Z,21.83
2023-03-30T17:37:49.792Z,24.47
2023-03-30T17:40:20.496Z,16.40
2023-03-30T17:42:48.514Z,19.33
2023-03-30T17:45:18.008Z,17.07
2023-03-30T17:47:46.157Z,17.60
2023-03-30T17:50:27.152Z,21.50
2023-03-30T17:52:55.874Z,19.27
2023-03-30T17:55:25.390Z,17.57
2023-03-30T17:57:53.211Z,22.67
2023-03-30T18:00:24.358Z,14.53
2023-03-30T18:02:52.636Z,13.53
2023-03-30T18:05:21.285Z,18.03
2023-03-30T18:07:50.844Z,23.33
2023-03-30T18:10:24.329Z,20.20
2023-03-30T18:12:52.768Z,23.53
2023-03-30T18:15:21.844Z,16.47
2023-03-30T18:17:49.920Z,19.60
2023-03-30T18:20:23.961Z,29.87
2023-03-30T18:22:53.058Z,23.27
2023-03-30T18:25:31.632Z,19.53
2023-03-30T18:28:00.460Z,23.50
2023-03-30T18:30:30.472Z,25.20
2023-03-30T18:32:58.615Z,17.77
2023-03-30T18:35:27.644Z,17.40
2023-03-30T18:37:57.116Z,25.50
2023-03-30T18:40:27.598Z,16.10
2023-03-30T18:42:55.806Z,21.53
2023-03-30T18:45:26.798Z,19.73
2023-03-30T18:47:54.758Z,14.87
2023-03-30T18:50:24.972Z,23.17
2023-03-30T18:52:52.687Z,23.73
2023-03-30T18:55:21.785Z,19.47
2023-03-30T18:57:49.784Z,18.03
2023-03-30T19:00:21.403Z,16.40
2023-03-30T19:02:50.017Z,14.70
2023-03-30T19:05:19.996Z,15.67
2023-03-30T19:07:47.825Z,18.17
2023-03-30T19:10:17.206Z,18.07
2023-03-30T19:12:46.948Z,22.03
2023-03-30T19:15:19.990Z,21.50
2023-03-30T19:17:48.066Z,19.93
2023-03-30T19:20:16.452Z,20.57
2023-03-30T19:22:44.264Z,18.50
2023-03-30T19:25:13.161Z,18.70
2023-03-30T19:27:51.973Z,19.40
2023-03-30T19:30:32.279Z,15.10
2023-03-30T19:33:01.826Z,21.67
2023-03-30T19:35:30.621Z,23.23
2023-03-30T19:37:58.361Z,19.40
2023-03-30T19:40:26.409Z,15.83
2023-03-30T19:42:54.265Z,14.33
2023-03-30T19:45:23.515Z,18.60
2023-03-30T19:47:52.770Z,17.47
2023-03-30T19:50:23.217Z,16.63
2023-03-30T19:52:51.418Z,15.27
2023-03-30T19:55:20.056Z,14.97
2023-03-30T19:57:47.772Z,20.50
2023-03-30T20:00:17.319Z,17.50
2023-03-30T20:02:47.261Z,20.83
2023-03-30T20:05:16.663Z,26.60
2023-03-30T20:07:45.596Z,19.00
2023-03-30T20:10:15.630Z,24.77
2023-03-30T20:12:43.665Z,17.93
2023-03-30T20:15:12.326Z,22.03
2023-03-30T20:17:40.636Z,18.67
2023-03-30T20:20:12.778Z,22.10
2023-03-30T20:22:43.063Z,18.33
2023-03-30T20:25:13.048Z,21.60
2023-03-30T20:27:40.908Z,19.80
2023-03-30T20:30:11.602Z,27.60
2023-03-30T20:32:39.724Z,23.53
2023-03-30T20:38:04.443Z,24.93
2023-03-30T20:40:32.382Z,21.47
2023-03-30T20:43:02.159Z,19.67
2023-03-30T20:45:30.572Z,28.77
2023-03-30T20:47:58.643Z,16.83
2023-03-30T20:50:27.220Z,22.60
2023-03-30T20:52:54.949Z,23.63
2023-03-30T20:55:24.040Z,17.77
2023-03-30T20:57:51.728Z,26.27
2023-03-30T21:00:20.642Z,28.93
2023-03-30T21:02:48.314Z,22.37
2023-03-30T21:05:16.240Z,20.63
2023-03-30T21:07:47.163Z,17.37
2023-03-30T21:10:16.375Z,26.73
2023-03-30T21:12:45.578Z,22.07
2023-03-30T21:15:14.083Z,24.80
2023-03-30T21:17:41.967Z,22.90
2023-03-30T21:20:11.638Z,21.57
2023-03-30T21:22:39.316Z,26.50
2023-03-30T21:25:07.662Z,16.20
2023-03-30T21:27:35.495Z,14.93
2023-03-30T21:30:05.196Z,17.03
2023-03-30T21:32:32.997Z,18.20
2023-03-30T21:35:00.749Z,26.53
2023-03-30T21:37:28.394Z,18.33
2023-03-30T21:39:56.200Z,19.47
2023-03-30T21:42:23.888Z,19.87
2023-03-30T21:44:51.561Z,22.10
2023-03-30T21:47:20.770Z,24.30
2023-03-30T21:49:48.417Z,23.20
2023-03-30T21:52:16.142Z,18.93
2023-03-30T21:54:43.781Z,16.90
2023-03-30T21:57:11.537Z,18.03
2023-03-30T21:59:39.311Z,18.57
2023-03-30T22:02:06.983Z,27.17
2023-03-30T22:04:36.078Z,17.43
2023-03-30T22:07:04.094Z,19.57
2023-03-30T22:09:32.104Z,17.07
2023-03-30T22:11:59.943Z,18.90
2023-03-30T22:14:27.711Z,18.77
2023-03-30T22:16:55.467Z,20.57
2023-03-30T22:19:24.526Z,17.20
2023-03-30T22:21:53.594Z,17.53
2023-03-30T22:24:21.372Z,17.73
2023-03-30T22:26:49.203Z,21.87
2023-03-30T22:29:20.606Z,16.23
2023-03-30T22:31:48.337Z,16.83
2023-03-30T22:34:16.224Z,17.10
2023-03-30T22:36:43.977Z,23.17
2023-03-30T22:39:13.023Z,17.67
2023-03-30T22:41:41.119Z,17.97
2023-03-30T22:44:08.842Z,19.03
2023-03-30T22:46:36.541Z,19.23
2023-03-30T22:49:04.182Z,18.43
2023-03-30T22:51:33.976Z,14.87
2023-03-30T22:54:01.750Z,17.27
2023-03-30T22:56:31.441Z,15.47
2023-03-30T22:59:00.818Z,13.70
2023-03-30T23:01:32.285Z,22.90
2023-03-30T23:04:00.663Z,15.40
2023-03-30T23:06:28.430Z,21.07
2023-03-30T23:08:56.103Z,19.27
2023-03-30T23:11:23.905Z,14.17
2023-03-30T23:13:53.954Z,19.50
2023-03-30T23:16:21.773Z,17.53
2023-03-30T23:18:49.823Z,14.63
2023-03-30T23:21:17.855Z,19.13
2023-03-30T23:23:45.651Z,17.83
2023-03-30T23:26:13.376Z,16.17
2023-03-30T23:28:42.945Z,14.23
2023-03-30T23:31:13.872Z,20.00
2023-03-30T23:33:41.856Z,12.37
2023-03-30T23:36:13.400Z,17.20
2023-03-30T23:38:41.424Z,17.77
2023-03-30T23:41:09.248Z,17.73
2023-03-30T23:43:37.043Z,18.40
2023-03-30T23:46:05.308Z,17.40
2023-03-30T23:48:34.627Z,15.70
2023-03-30T23:51:02.448Z,15.60
2023-03-30T23:53:30.320Z,14.90
2023-03-30T23:55:58.286Z,14.23
2023-03-30T23:58:26.340Z,17.30
